sensor_id;sensor_type;location;lat;lon;timestamp;pressure;altitude;pressure_sealevel;temperature;humidity
25430;BME280;13360;48.152;-1.788;2022-12-18T00:02:02;101975.47;;;2.33;100.00
25430;BME280;13360;48.152;-1.788;2022-12-18T00:04:29;101918.63;;;2.23;100.00
25430;BME280;13360;48.152;-1.788;2022-12-18T00:06:54;101983.00;;;2.51;100.00
25430;BME280;13360;48.152;-1.788;2022-12-18T00:09:20;101959.69;;;2.55;100.00
25430;BME280;13360;48.152;-1.788;2022-12-18T00:11:46;101928.22;;;2.45;100.00
25430;BME280;13360;48.152;-1.788;2022-12-18T00:14:12;101905.41;;;2.27;100.00
25430;BME280;13360;48.152;-1.788;2022-12-18T00:16:39;101910.47;;;2.17;100.00
25430;BME280;13360;48.152;-1.788;2022-12-18T00:19:06;101948.84;;;2.35;100.00
25430;BME280;13360;48.152;-1.788;2022-12-18T00:21:32;101900.84;;;2.14;100.00
25430;BME280;13360;48.152;-1.788;2022-12-18T00:23:59;101903.38;;;1.96;100.00
25430;BME280;13360;48.152;-1.788;2022-12-18T00:26:27;101947.63;;;2.11;100.00
25430;BME280;13360;48.152;-1.788;2022-12-18T00:28:53;101955.78;;;2.04;100.00
25430;BME280;13360;48.152;-1.788;2022-12-18T00:31:21;101957.91;;;1.89;100.00
25430;BME280;13360;48.152;-1.788;2022-12-18T00:33:47;101939.66;;;1.76;100.00
25430;BME280;13360;48.152;-1.788;2022-12-18T00:36:19;101957.25;;;1.87;100.00
25430;BME280;13360;48.152;-1.788;2022-12-18T00:38:46;101955.16;;;2.16;100.00
25430;BME280;13360;48.152;-1.788;2022-12-18T00:41:13;101940.66;;;2.22;100.00
25430;BME280;13360;48.152;-1.788;2022-12-18T00:43:59;101942.56;;;2.21;100.00
25430;BME280;13360;48.152;-1.788;2022-12-18T00:46:25;101900.03;;;2.00;100.00
25430;BME280;13360;48.152;-1.788;2022-12-18T00:48:50;101884.31;;;1.63;100.00
25430;BME280;13360;48.152;-1.788;2022-12-18T00:51:15;101961.22;;;1.84;100.00
25430;BME280;13360;48.152;-1.788;2022-12-18T00:53:41;101933.53;;;2.07;100.00
25430;BME280;13360;48.152;-1.788;2022-12-18T00:56:06;101902.75;;;1.87;100.00
25430;BME280;13360;48.152;-1.788;2022-12-18T00:58:31;101914.72;;;1.93;100.00
25430;BME280;13360;48.152;-1.788;2022-12-18T01:00:57;101905.91;;;1.51;100.00
25430;BME280;13360;48.152;-1.788;2022-12-18T01:03:22;101943.41;;;2.02;100.00
25430;BME280;13360;48.152;-1.788;2022-12-18T01:05:47;101894.56;;;1.87;100.00
25430;BME280;13360;48.152;-1.788;2022-12-18T01:08:13;101872.81;;;1.54;100.00
25430;BME280;13360;48.152;-1.788;2022-12-18T01:10:41;101897.72;;;1.64;100.00
25430;BME280;13360;48.152;-1.788;2022-12-18T01:13:07;101934.44;;;1.88;100.00
25430;BME280;13360;48.152;-1.788;2022-12-18T01:15:32;101903.19;;;1.64;100.00
25430;BME280;13360;48.152;-1.788;2022-12-18T01:17:57;101929.56;;;1.64;100.00
25430;BME280;13360;48.152;-1.788;2022-12-18T01:20:22;101947.41;;;1.79;100.00
25430;BME280;13360;48.152;-1.788;2022-12-18T01:22:48;101902.78;;;1.67;100.00
25430;BME280;13360;48.152;-1.788;2022-12-18T01:25:13;101906.34;;;1.74;100.00
25430;BME280;13360;48.152;-1.788;2022-12-18T01:27:39;101925.00;;;1.71;100.00
25430;BME280;13360;48.152;-1.788;2022-12-18T01:30:04;101938.38;;;1.86;100.00
25430;BME280;13360;48.152;-1.788;2022-12-18T01:32:31;101911.78;;;1.81;100.00
25430;BME280;13360;48.152;-1.788;2022-12-18T01:34:56;101938.41;;;1.92;100.00
25430;BME280;13360;48.152;-1.788;2022-12-18T01:37:22;101915.34;;;1.75;100.00
25430;BME280;13360;48.152;-1.788;2022-12-18T01:39:47;101964.19;;;1.90;100.00
25430;BME280;13360;48.152;-1.788;2022-12-18T01:42:14;101936.31;;;1.94;100.00
25430;BME280;13360;48.152;-1.788;2022-12-18T01:52:48;101916.56;;;2.05;100.00
25430;BME280;13360;48.152;-1.788;2022-12-18T01:55:16;101906.94;;;2.03;100.00
25430;BME280;13360;48.152;-1.788;2022-12-18T01:57:43;101927.91;;;2.16;100.00
25430;BME280;13360;48.152;-1.788;2022-12-18T02:00:12;101891.63;;;2.02;100.00
25430;BME280;13360;48.152;-1.788;2022-12-18T02:02:39;101918.69;;;2.10;100.00
25430;BME280;13360;48.152;-1.788;2022-12-18T02:05:05;101888.25;;;2.06;100.00
25430;BME280;13360;48.152;-1.788;2022-12-18T02:10:04;101898.72;;;2.23;100.00
25430;BME280;13360;48.152;-1.788;2022-12-18T02:12:43;101847.03;;;1.76;100.00
25430;BME280;13360;48.152;-1.788;2022-12-18T02:15:20;101929.81;;;2.08;100.00
25430;BME280;13360;48.152;-1.788;2022-12-18T02:17:56;101945.09;;;2.16;100.00
25430;BME280;13360;48.152;-1.788;2022-12-18T02:20:47;101941.06;;;2.25;100.00
25430;BME280;13360;48.152;-1.788;2022-12-18T02:28:54;101877.91;;;2.41;100.00
25430;BME280;13360;48.152;-1.788;2022-12-18T02:31:25;101834.78;;;2.19;100.00
25430;BME280;13360;48.152;-1.788;2022-12-18T02:33:55;101874.78;;;2.38;100.00
25430;BME280;13360;48.152;-1.788;2022-12-18T02:36:22;101857.81;;;2.29;100.00
25430;BME280;13360;48.152;-1.788;2022-12-18T02:38:48;101815.56;;;1.94;100.00
25430;BME280;13360;48.152;-1.788;2022-12-18T02:41:15;101865.84;;;2.11;100.00
25430;BME280;13360;48.152;-1.788;2022-12-18T02:43:47;101873.41;;;2.09;100.00
25430;BME280;13360;48.152;-1.788;2022-12-18T02:48:51;101853.50;;;1.95;100.00
25430;BME280;13360;48.152;-1.788;2022-12-18T02:53:51;101890.31;;;2.37;100.00
25430;BME280;13360;48.152;-1.788;2022-12-18T02:56:38;101847.31;;;2.26;100.00
25430;BME280;13360;48.152;-1.788;2022-12-18T02:59:14;101845.44;;;2.33;100.00
25430;BME280;13360;48.152;-1.788;2022-12-18T03:01:51;101838.09;;;2.34;100.00
25430;BME280;13360;48.152;-1.788;2022-12-18T03:04:31;101819.03;;;2.21;100.00
25430;BME280;13360;48.152;-1.788;2022-12-18T03:07:21;101794.00;;;1.92;100.00
25430;BME280;13360;48.152;-1.788;2022-12-18T03:09:50;101830.63;;;2.03;100.00
25430;BME280;13360;48.152;-1.788;2022-12-18T03:12:21;101865.78;;;2.24;100.00
25430;BME280;13360;48.152;-1.788;2022-12-18T03:15:09;101875.00;;;2.36;100.00
25430;BME280;13360;48.152;-1.788;2022-12-18T03:17:38;101858.66;;;2.30;100.00
25430;BME280;13360;48.152;-1.788;2022-12-18T03:20:11;101849.00;;;2.27;100.00
25430;BME280;13360;48.152;-1.788;2022-12-18T03:22:38;101837.94;;;2.16;100.00
25430;BME280;13360;48.152;-1.788;2022-12-18T03:25:06;101824.97;;;2.04;100.00
25430;BME280;13360;48.152;-1.788;2022-12-18T03:27:36;101827.91;;;2.03;100.00
25430;BME280;13360;48.152;-1.788;2022-12-18T03:30:08;101863.13;;;2.11;100.00
25430;BME280;13360;48.152;-1.788;2022-12-18T03:32:42;101853.25;;;2.03;100.00
25430;BME280;13360;48.152;-1.788;2022-12-18T03:35:14;101845.31;;;1.95;100.00
25430;BME280;13360;48.152;-1.788;2022-12-18T03:37:41;101868.38;;;1.99;100.00
25430;BME280;13360;48.152;-1.788;2022-12-18T03:40:07;101899.81;;;2.15;100.00
25430;BME280;13360;48.152;-1.788;2022-12-18T03:42:48;101879.88;;;2.08;100.00
25430;BME280;13360;48.152;-1.788;2022-12-18T03:50:49;101926.34;;;2.53;100.00
25430;BME280;13360;48.152;-1.788;2022-12-18T03:56:00;101897.66;;;2.24;100.00
25430;BME280;13360;48.152;-1.788;2022-12-18T03:58:28;101898.47;;;2.37;100.00
25430;BME280;13360;48.152;-1.788;2022-12-18T04:00:56;101909.38;;;2.51;100.00
25430;BME280;13360;48.152;-1.788;2022-12-18T04:03:25;101845.72;;;2.12;100.00
25430;BME280;13360;48.152;-1.788;2022-12-18T04:05:54;101885.50;;;2.26;100.00
25430;BME280;13360;48.152;-1.788;2022-12-18T04:08:21;101896.00;;;2.29;100.00
25430;BME280;13360;48.152;-1.788;2022-12-18T04:10:47;101889.28;;;2.32;100.00
25430;BME280;13360;48.152;-1.788;2022-12-18T04:13:12;101896.81;;;2.36;100.00
25430;BME280;13360;48.152;-1.788;2022-12-18T04:15:38;101895.09;;;2.42;100.00
25430;BME280;13360;48.152;-1.788;2022-12-18T04:18:04;101909.16;;;2.45;100.00
25430;BME280;13360;48.152;-1.788;2022-12-18T04:20:29;101892.59;;;2.40;100.00
25430;BME280;13360;48.152;-1.788;2022-12-18T04:22:55;101859.94;;;2.21;100.00
25430;BME280;13360;48.152;-1.788;2022-12-18T04:25:20;101912.13;;;2.37;100.00
25430;BME280;13360;48.152;-1.788;2022-12-18T04:27:45;101907.09;;;2.34;100.00
25430;BME280;13360;48.152;-1.788;2022-12-18T04:30:11;101907.97;;;2.15;100.00
25430;BME280;13360;48.152;-1.788;2022-12-18T04:32:36;101943.38;;;2.35;100.00
25430;BME280;13360;48.152;-1.788;2022-12-18T04:35:02;101880.06;;;2.20;100.00
25430;BME280;13360;48.152;-1.788;2022-12-18T04:37:29;101919.06;;;2.33;100.00
25430;BME280;13360;48.152;-1.788;2022-12-18T04:39:54;101910.47;;;2.17;100.00
25430;BME280;13360;48.152;-1.788;2022-12-18T04:42:20;101894.31;;;2.22;100.00
25430;BME280;13360;48.152;-1.788;2022-12-18T04:44:45;101877.38;;;2.13;100.00
25430;BME280;13360;48.152;-1.788;2022-12-18T04:47:10;101866.09;;;1.90;100.00
25430;BME280;13360;48.152;-1.788;2022-12-18T04:49:36;101911.75;;;2.14;100.00
25430;BME280;13360;48.152;-1.788;2022-12-18T04:52:01;101902.75;;;2.13;100.00
25430;BME280;13360;48.152;-1.788;2022-12-18T04:54:26;101897.50;;;1.99;100.00
25430;BME280;13360;48.152;-1.788;2022-12-18T04:56:52;101910.03;;;2.33;100.00
25430;BME280;13360;48.152;-1.788;2022-12-18T04:59:17;101898.06;;;2.34;100.00
25430;BME280;13360;48.152;-1.788;2022-12-18T05:01:42;101904.56;;;2.39;100.00
25430;BME280;13360;48.152;-1.788;2022-12-18T05:04:08;101880.47;;;2.30;100.00
25430;BME280;13360;48.152;-1.788;2022-12-18T05:06:33;101883.81;;;2.25;100.00
25430;BME280;13360;48.152;-1.788;2022-12-18T05:08:59;101918.16;;;2.46;100.00
25430;BME280;13360;48.152;-1.788;2022-12-18T05:11:24;101889.03;;;2.40;100.00
25430;BME280;13360;48.152;-1.788;2022-12-18T05:13:49;101857.44;;;2.19;100.00
25430;BME280;13360;48.152;-1.788;2022-12-18T05:16:15;101893.69;;;2.33;100.00
25430;BME280;13360;48.152;-1.788;2022-12-18T05:18:40;101890.28;;;2.51;100.00
25430;BME280;13360;48.152;-1.788;2022-12-18T05:21:06;101862.16;;;2.43;100.00
25430;BME280;13360;48.152;-1.788;2022-12-18T05:23:31;101829.94;;;2.21;100.00
25430;BME280;13360;48.152;-1.788;2022-12-18T05:25:59;101854.25;;;2.22;100.00
25430;BME280;13360;48.152;-1.788;2022-12-18T05:28:28;101863.28;;;2.29;100.00
25430;BME280;13360;48.152;-1.788;2022-12-18T05:30:55;101877.47;;;2.44;100.00
25430;BME280;13360;48.152;-1.788;2022-12-18T05:33:23;101855.44;;;2.46;100.00
25430;BME280;13360;48.152;-1.788;2022-12-18T05:35:57;101846.41;;;2.45;100.00
25430;BME280;13360;48.152;-1.788;2022-12-18T05:38:24;101806.28;;;2.08;100.00
25430;BME280;13360;48.152;-1.788;2022-12-18T05:40:51;101852.78;;;2.26;100.00
25430;BME280;13360;48.152;-1.788;2022-12-18T05:43:17;101825.19;;;2.09;100.00
25430;BME280;13360;48.152;-1.788;2022-12-18T05:45:42;101845.66;;;2.25;100.00
25430;BME280;13360;48.152;-1.788;2022-12-18T05:48:08;101842.25;;;2.43;100.00
25430;BME280;13360;48.152;-1.788;2022-12-18T05:50:39;101831.66;;;2.15;100.00
25430;BME280;13360;48.152;-1.788;2022-12-18T05:53:05;101840.28;;;1.99;100.00
25430;BME280;13360;48.152;-1.788;2022-12-18T05:55:39;101849.47;;;2.04;100.00
25430;BME280;13360;48.152;-1.788;2022-12-18T05:58:05;101837.91;;;2.22;100.00
25430;BME280;13360;48.152;-1.788;2022-12-18T06:00:32;101843.97;;;2.31;100.00
25430;BME280;13360;48.152;-1.788;2022-12-18T06:02:58;101836.81;;;2.36;100.00
25430;BME280;13360;48.152;-1.788;2022-12-18T06:05:24;101823.00;;;2.31;100.00
25430;BME280;13360;48.152;-1.788;2022-12-18T06:07:50;101844.81;;;2.31;100.00
25430;BME280;13360;48.152;-1.788;2022-12-18T06:10:15;101831.75;;;2.40;100.00
25430;BME280;13360;48.152;-1.788;2022-12-18T06:12:40;101830.94;;;2.39;100.00
25430;BME280;13360;48.152;-1.788;2022-12-18T06:15:06;101842.09;;;2.31;100.00
25430;BME280;13360;48.152;-1.788;2022-12-18T06:17:34;101840.13;;;2.52;100.00
25430;BME280;13360;48.152;-1.788;2022-12-18T06:19:59;101833.16;;;2.56;100.00
25430;BME280;13360;48.152;-1.788;2022-12-18T06:22:26;101809.91;;;2.47;100.00
25430;BME280;13360;48.152;-1.788;2022-12-18T06:24:52;101824.09;;;2.62;100.00
25430;BME280;13360;48.152;-1.788;2022-12-18T06:27:17;101823.31;;;2.48;100.00
25430;BME280;13360;48.152;-1.788;2022-12-18T06:29:42;101828.78;;;2.48;100.00
25430;BME280;13360;48.152;-1.788;2022-12-18T06:32:08;101846.66;;;2.37;100.00
25430;BME280;13360;48.152;-1.788;2022-12-18T06:34:34;101858.97;;;2.60;100.00
25430;BME280;13360;48.152;-1.788;2022-12-18T06:36:59;101855.97;;;2.74;100.00
25430;BME280;13360;48.152;-1.788;2022-12-18T06:39:27;101831.50;;;2.55;100.00
25430;BME280;13360;48.152;-1.788;2022-12-18T06:41:53;101860.59;;;2.67;100.00
25430;BME280;13360;48.152;-1.788;2022-12-18T06:44:18;101804.13;;;2.23;100.00
25430;BME280;13360;48.152;-1.788;2022-12-18T06:46:43;101851.44;;;2.49;100.00
25430;BME280;13360;48.152;-1.788;2022-12-18T06:49:09;101845.38;;;2.47;100.00
25430;BME280;13360;48.152;-1.788;2022-12-18T06:51:34;101849.28;;;2.64;100.00
25430;BME280;13360;48.152;-1.788;2022-12-18T06:54:00;101838.84;;;2.48;100.00
25430;BME280;13360;48.152;-1.788;2022-12-18T06:56:25;101858.53;;;2.63;100.00
25430;BME280;13360;48.152;-1.788;2022-12-18T06:58:51;101861.41;;;2.74;100.00
25430;BME280;13360;48.152;-1.788;2022-12-18T07:01:16;101858.16;;;2.53;100.00
25430;BME280;13360;48.152;-1.788;2022-12-18T07:03:42;101871.41;;;2.42;100.00
25430;BME280;13360;48.152;-1.788;2022-12-18T07:06:27;101874.78;;;2.38;100.00
25430;BME280;13360;48.152;-1.788;2022-12-18T07:08:53;101890.91;;;2.39;100.00
25430;BME280;13360;48.152;-1.788;2022-12-18T07:11:19;101895.06;;;2.55;100.00
25430;BME280;13360;48.152;-1.788;2022-12-18T07:13:45;101883.69;;;2.65;100.00
25430;BME280;13360;48.152;-1.788;2022-12-18T07:16:13;101897.06;;;2.80;100.00
25430;BME280;13360;48.152;-1.788;2022-12-18T07:18:39;101891.59;;;2.80;100.00
25430;BME280;13360;48.152;-1.788;2022-12-18T07:21:06;101876.69;;;2.82;100.00
25430;BME280;13360;48.152;-1.788;2022-12-18T07:23:33;101873.72;;;2.39;100.00
25430;BME280;13360;48.152;-1.788;2022-12-18T07:26:07;101897.63;;;2.43;100.00
25430;BME280;13360;48.152;-1.788;2022-12-18T07:28:33;101900.06;;;2.65;100.00
25430;BME280;13360;48.152;-1.788;2022-12-18T07:31:20;101915.16;;;2.67;100.00
25430;BME280;13360;48.152;-1.788;2022-12-18T07:33:46;101909.28;;;2.64;100.00
25430;BME280;13360;48.152;-1.788;2022-12-18T07:36:11;101911.63;;;2.60;100.00
25430;BME280;13360;48.152;-1.788;2022-12-18T07:38:37;101897.41;;;2.52;100.00
25430;BME280;13360;48.152;-1.788;2022-12-18T07:41:05;101909.81;;;2.28;100.00
25430;BME280;13360;48.152;-1.788;2022-12-18T07:43:31;101928.41;;;2.57;100.00
25430;BME280;13360;48.152;-1.788;2022-12-18T07:45:57;101936.53;;;2.70;100.00
25430;BME280;13360;48.152;-1.788;2022-12-18T07:48:22;101933.94;;;2.89;100.00
25430;BME280;13360;48.152;-1.788;2022-12-18T07:50:47;101928.03;;;2.98;100.00
25430;BME280;13360;48.152;-1.788;2022-12-18T07:53:13;101931.09;;;2.77;100.00
25430;BME280;13360;48.152;-1.788;2022-12-18T07:55:40;101934.16;;;2.87;100.00
25430;BME280;13360;48.152;-1.788;2022-12-18T07:58:06;101920.91;;;2.91;100.00
25430;BME280;13360;48.152;-1.788;2022-12-18T08:00:33;101937.72;;;2.94;100.00
25430;BME280;13360;48.152;-1.788;2022-12-18T08:02:58;101923.47;;;2.92;100.00
25430;BME280;13360;48.152;-1.788;2022-12-18T08:05:24;101938.63;;;2.82;100.00
25430;BME280;13360;48.152;-1.788;2022-12-18T08:07:49;101946.56;;;2.83;100.00
25430;BME280;13360;48.152;-1.788;2022-12-18T08:10:14;101960.38;;;3.01;100.00
25430;BME280;13360;48.152;-1.788;2022-12-18T08:12:40;101968.41;;;2.83;100.00
25430;BME280;13360;48.152;-1.788;2022-12-18T08:15:06;101975.31;;;2.92;100.00
25430;BME280;13360;48.152;-1.788;2022-12-18T08:17:32;101982.63;;;2.98;100.00
25430;BME280;13360;48.152;-1.788;2022-12-18T08:19:57;101971.28;;;3.01;100.00
25430;BME280;13360;48.152;-1.788;2022-12-18T08:22:22;101972.63;;;2.79;100.00
25430;BME280;13360;48.152;-1.788;2022-12-18T08:24:48;101978.53;;;2.76;100.00
25430;BME280;13360;48.152;-1.788;2022-12-18T08:27:13;101978.91;;;2.80;100.00
25430;BME280;13360;48.152;-1.788;2022-12-18T08:29:39;101998.19;;;2.98;100.00
25430;BME280;13360;48.152;-1.788;2022-12-18T08:32:04;101993.59;;;2.92;100.00
25430;BME280;13360;48.152;-1.788;2022-12-18T08:34:30;102007.47;;;2.77;100.00
25430;BME280;13360;48.152;-1.788;2022-12-18T08:36:55;102031.59;;;2.93;100.00
25430;BME280;13360;48.152;-1.788;2022-12-18T08:39:20;102045.16;;;3.13;100.00
25430;BME280;13360;48.152;-1.788;2022-12-18T08:41:46;102048.03;;;3.25;100.00
25430;BME280;13360;48.152;-1.788;2022-12-18T08:44:32;102067.34;;;3.30;100.00
25430;BME280;13360;48.152;-1.788;2022-12-18T08:47:04;102083.34;;;3.20;100.00
25430;BME280;13360;48.152;-1.788;2022-12-18T08:49:30;102084.38;;;3.25;100.00
25430;BME280;13360;48.152;-1.788;2022-12-18T08:51:56;102080.63;;;3.20;100.00
25430;BME280;13360;48.152;-1.788;2022-12-18T08:54:22;102090.88;;;3.38;100.00
25430;BME280;13360;48.152;-1.788;2022-12-18T08:56:48;102092.94;;;3.42;100.00
25430;BME280;13360;48.152;-1.788;2022-12-18T08:59:15;102085.00;;;3.34;100.00
25430;BME280;13360;48.152;-1.788;2022-12-18T09:01:40;102098.00;;;3.39;100.00
25430;BME280;13360;48.152;-1.788;2022-12-18T09:04:05;102097.81;;;3.33;100.00
25430;BME280;13360;48.152;-1.788;2022-12-18T09:06:31;102119.00;;;3.38;100.00
25430;BME280;13360;48.152;-1.788;2022-12-18T09:08:56;102119.84;;;3.32;100.00
25430;BME280;13360;48.152;-1.788;2022-12-18T09:11:25;102132.47;;;3.40;100.00
25430;BME280;13360;48.152;-1.788;2022-12-18T09:13:51;102138.75;;;3.40;100.00
25430;BME280;13360;48.152;-1.788;2022-12-18T09:16:18;102151.38;;;3.28;100.00
25430;BME280;13360;48.152;-1.788;2022-12-18T09:18:44;102164.59;;;3.44;100.00
25430;BME280;13360;48.152;-1.788;2022-12-18T09:21:15;102166.28;;;3.39;100.00
25430;BME280;13360;48.152;-1.788;2022-12-18T09:23:41;102184.56;;;3.38;100.00
25430;BME280;13360;48.152;-1.788;2022-12-18T09:26:07;102181.59;;;3.46;100.00
25430;BME280;13360;48.152;-1.788;2022-12-18T09:28:33;102188.13;;;3.32;100.00
25430;BME280;13360;48.152;-1.788;2022-12-18T09:30:59;102194.22;;;3.41;100.00
25430;BME280;13360;48.152;-1.788;2022-12-18T09:33:28;102211.47;;;3.41;100.00
25430;BME280;13360;48.152;-1.788;2022-12-18T09:35:53;102212.31;;;3.35;100.00
25430;BME280;13360;48.152;-1.788;2022-12-18T09:38:19;102221.13;;;3.37;100.00
25430;BME280;13360;48.152;-1.788;2022-12-18T09:40:48;102229.09;;;3.45;100.00
25430;BME280;13360;48.152;-1.788;2022-12-18T09:43:18;102232.84;;;3.57;100.00
25430;BME280;13360;48.152;-1.788;2022-12-18T09:45:47;102239.63;;;3.42;100.00
25430;BME280;13360;48.152;-1.788;2022-12-18T09:48:28;102228.06;;;3.26;100.00
25430;BME280;13360;48.152;-1.788;2022-12-18T09:50:59;102245.06;;;3.48;100.00
25430;BME280;13360;48.152;-1.788;2022-12-18T09:53:30;102248.59;;;3.62;100.00
25430;BME280;13360;48.152;-1.788;2022-12-18T09:55:57;102251.78;;;3.59;100.00
25430;BME280;13360;48.152;-1.788;2022-12-18T09:58:41;102253.03;;;3.56;100.00
25430;BME280;13360;48.152;-1.788;2022-12-18T10:01:20;102259.75;;;3.54;100.00
25430;BME280;13360;48.152;-1.788;2022-12-18T10:03:47;102281.78;;;3.72;100.00
25430;BME280;13360;48.152;-1.788;2022-12-18T10:09:38;102287.69;;;3.62;100.00
25430;BME280;13360;48.152;-1.788;2022-12-18T10:12:30;102310.16;;;3.71;100.00
25430;BME280;13360;48.152;-1.788;2022-12-18T10:15:07;102308.91;;;3.74;100.00
25430;BME280;13360;48.152;-1.788;2022-12-18T10:17:42;102319.22;;;3.78;100.00
25430;BME280;13360;48.152;-1.788;2022-12-18T10:22:53;102320.69;;;3.67;100.00
25430;BME280;13360;48.152;-1.788;2022-12-18T10:25:26;102339.59;;;3.82;100.00
25430;BME280;13360;48.152;-1.788;2022-12-18T10:27:57;102352.63;;;3.87;100.00
25430;BME280;13360;48.152;-1.788;2022-12-18T10:30:24;102355.78;;;3.84;100.00
25430;BME280;13360;48.152;-1.788;2022-12-18T10:32:51;102361.03;;;3.85;100.00
25430;BME280;13360;48.152;-1.788;2022-12-18T10:35:25;102363.13;;;3.90;100.00
25430;BME280;13360;48.152;-1.788;2022-12-18T10:43:15;102403.94;;;3.85;100.00
25430;BME280;13360;48.152;-1.788;2022-12-18T10:45:42;102416.97;;;3.89;100.00
25430;BME280;13360;48.152;-1.788;2022-12-18T10:48:22;102415.50;;;3.87;100.00
25430;BME280;13360;48.152;-1.788;2022-12-18T10:50:49;102410.66;;;3.89;100.00
25430;BME280;13360;48.152;-1.788;2022-12-18T10:53:24;102411.94;;;3.80;100.00
25430;BME280;13360;48.152;-1.788;2022-12-18T10:55:52;102424.53;;;3.94;100.00
25430;BME280;13360;48.152;-1.788;2022-12-18T10:58:28;102441.13;;;3.92;100.00
25430;BME280;13360;48.152;-1.788;2022-12-18T11:01:14;102445.78;;;3.85;100.00
25430;BME280;13360;48.152;-1.788;2022-12-18T11:03:41;102441.13;;;3.73;100.00
25430;BME280;13360;48.152;-1.788;2022-12-18T11:08:34;102487.41;;;3.87;100.00
25430;BME280;13360;48.152;-1.788;2022-12-18T11:11:00;102490.78;;;3.89;100.00
25430;BME280;13360;48.152;-1.788;2022-12-18T11:13:28;102513.94;;;4.00;100.00
25430;BME280;13360;48.152;-1.788;2022-12-18T11:15:54;102525.50;;;4.09;100.00
25430;BME280;13360;48.152;-1.788;2022-12-18T11:18:26;102534.75;;;4.14;100.00
25430;BME280;13360;48.152;-1.788;2022-12-18T11:21:04;102540.63;;;4.11;100.00
25430;BME280;13360;48.152;-1.788;2022-12-18T11:23:31;102547.78;;;4.06;100.00
25430;BME280;13360;48.152;-1.788;2022-12-18T11:25:59;102561.88;;;4.09;100.00
25430;BME280;13360;48.152;-1.788;2022-12-18T11:28:37;102576.63;;;4.08;100.00
25430;BME280;13360;48.152;-1.788;2022-12-18T11:34:10;102600.81;;;4.24;100.00
25430;BME280;13360;48.152;-1.788;2022-12-18T11:36:45;102592.00;;;4.22;100.00
25430;BME280;13360;48.152;-1.788;2022-12-18T11:39:23;102598.69;;;4.13;100.00
25430;BME280;13360;48.152;-1.788;2022-12-18T11:41:56;102598.69;;;4.13;100.00
25430;BME280;13360;48.152;-1.788;2022-12-18T11:50:58;102624.19;;;4.27;100.00
25430;BME280;13360;48.152;-1.788;2022-12-18T11:53:26;102622.06;;;4.16;100.00
25430;BME280;13360;48.152;-1.788;2022-12-18T11:58:46;102638.28;;;4.24;100.00
25430;BME280;13360;48.152;-1.788;2022-12-18T12:04:09;102677.63;;;4.29;100.00
25430;BME280;13360;48.152;-1.788;2022-12-18T12:14:57;102735.75;;;4.38;100.00
25430;BME280;13360;48.152;-1.788;2022-12-18T12:17:42;102740.59;;;4.43;100.00
25430;BME280;13360;48.152;-1.788;2022-12-18T12:20:20;102759.97;;;4.41;100.00
25430;BME280;13360;48.152;-1.788;2022-12-18T12:31:03;102832.19;;;4.47;100.00
25430;BME280;13360;48.152;-1.788;2022-12-18T12:34:16;102848.25;;;4.63;100.00
25430;BME280;13360;48.152;-1.788;2022-12-18T12:36:37;102857.88;;;4.52;100.00
25430;BME280;13360;48.152;-1.788;2022-12-18T12:39:09;102875.41;;;4.65;100.00
25430;BME280;13360;48.152;-1.788;2022-12-18T12:41:38;102877.31;;;4.64;100.00
25430;BME280;13360;48.152;-1.788;2022-12-18T12:44:30;102892.28;;;4.75;100.00
25430;BME280;13360;48.152;-1.788;2022-12-18T12:47:00;102912.53;;;4.80;100.00
25430;BME280;13360;48.152;-1.788;2022-12-18T12:49:31;102894.34;;;4.59;100.00
25430;BME280;13360;48.152;-1.788;2022-12-18T12:52:07;102922.19;;;4.76;100.00
25430;BME280;13360;48.152;-1.788;2022-12-18T12:54:36;102937.84;;;4.89;100.00
25430;BME280;13360;48.152;-1.788;2022-12-18T12:57:30;102955.16;;;5.03;100.00
25430;BME280;13360;48.152;-1.788;2022-12-18T13:00:16;102951.97;;;4.99;100.00
25430;BME280;13360;48.152;-1.788;2022-12-18T13:03:01;102954.06;;;4.97;100.00
25430;BME280;13360;48.152;-1.788;2022-12-18T13:05:45;102966.56;;;5.06;100.00
25430;BME280;13360;48.152;-1.788;2022-12-18T13:08:26;102999.88;;;5.16;100.00
25430;BME280;13360;48.152;-1.788;2022-12-18T13:10:53;103032.19;;;5.34;100.00
25430;BME280;13360;48.152;-1.788;2022-12-18T13:13:55;103030.50;;;5.40;100.00
25430;BME280;13360;48.152;-1.788;2022-12-18T13:16:23;103029.91;;;5.44;100.00
25430;BME280;13360;48.152;-1.788;2022-12-18T13:18:54;103004.34;;;5.37;100.00
25430;BME280;13360;48.152;-1.788;2022-12-18T13:21:26;102978.00;;;5.23;100.00
25430;BME280;13360;48.152;-1.788;2022-12-18T13:23:53;102983.22;;;5.18;100.00
25430;BME280;13360;48.152;-1.788;2022-12-18T13:34:24;103000.06;;;5.15;100.00
25430;BME280;13360;48.152;-1.788;2022-12-18T13:36:51;103016.09;;;5.18;100.00
25430;BME280;13360;48.152;-1.788;2022-12-18T13:41:49;103023.09;;;5.27;100.00
25430;BME280;13360;48.152;-1.788;2022-12-18T13:44:22;103023.94;;;5.28;100.00
25430;BME280;13360;48.152;-1.788;2022-12-18T13:46:50;103031.13;;;5.29;100.00
25430;BME280;13360;48.152;-1.788;2022-12-18T13:49:38;103027.53;;;5.28;100.00
25430;BME280;13360;48.152;-1.788;2022-12-18T13:52:25;103041.88;;;5.30;100.00
25430;BME280;13360;48.152;-1.788;2022-12-18T13:54:52;103040.41;;;5.34;100.00
25430;BME280;13360;48.152;-1.788;2022-12-18T13:57:37;103039.97;;;5.37;100.00
25430;BME280;13360;48.152;-1.788;2022-12-18T14:02:45;103062.13;;;5.36;100.00
25430;BME280;13360;48.152;-1.788;2022-12-18T14:05:34;103073.97;;;5.43;100.00
25430;BME280;13360;48.152;-1.788;2022-12-18T14:08:12;103080.09;;;5.45;100.00
25430;BME280;13360;48.152;-1.788;2022-12-18T14:10:43;103079.66;;;5.41;100.00
25430;BME280;13360;48.152;-1.788;2022-12-18T14:13:11;103087.69;;;5.43;100.00
25430;BME280;13360;48.152;-1.788;2022-12-18T14:15:42;103102.66;;;5.47;100.00
25430;BME280;13360;48.152;-1.788;2022-12-18T14:18:23;103100.53;;;5.42;100.00
25430;BME280;13360;48.152;-1.788;2022-12-18T14:20:52;103131.56;;;5.49;100.00